createdAt,value
2022-11-18T00:00:21.097Z,13.88
2022-11-18T00:03:23.709Z,13.57
2022-11-18T00:06:27.312Z,18.70
2022-11-18T00:09:29.500Z,12.65
2022-11-18T00:12:50.439Z,13.75
2022-11-18T00:16:06.943Z,15.35
2022-11-18T00:19:09.157Z,15.70
2022-11-18T00:22:13.111Z,19.37
2022-11-18T00:25:15.290Z,15.85
2022-11-18T00:28:17.454Z,14.73
2022-11-18T00:31:19.725Z,14.30
2022-11-18T00:34:22.217Z,18.90
2022-11-18T00:37:24.452Z,15.77
2022-11-18T00:40:26.683Z,11.93
2022-11-18T00:43:30.047Z,14.27
2022-11-18T00:46:32.342Z,13.60
2022-11-18T00:49:34.485Z,12.63
2022-11-18T00:52:36.683Z,17.62
2022-11-18T00:55:38.864Z,15.77
2022-11-18T00:58:41.065Z,14.68
2022-11-18T01:01:43.370Z,15.35
2022-11-18T01:04:45.716Z,18.23
2022-11-18T01:07:47.971Z,19.20
2022-11-18T01:10:50.841Z,15.65
2022-11-18T01:13:53.565Z,15.77
2022-11-18T01:16:56.756Z,15.98
2022-11-18T01:19:59.305Z,22.45
2022-11-18T01:23:01.650Z,11.18
2022-11-18T01:26:09.652Z,17.45
2022-11-18T01:29:11.936Z,14.20
2022-11-18T01:32:29.325Z,15.75
2022-11-18T01:35:36.355Z,21.67
2022-11-18T01:38:38.508Z,15.20
2022-11-18T01:41:40.721Z,14.70
2022-11-18T01:45:09.716Z,12.30
2022-11-18T01:48:15.203Z,9.45
2022-11-18T01:51:19.534Z,12.07
2022-11-18T01:54:27.150Z,13.30
2022-11-18T01:57:30.745Z,11.35
2022-11-18T02:00:32.967Z,20.30
2022-11-18T02:03:36.208Z,17.25
2022-11-18T02:06:38.623Z,21.33
2022-11-18T02:09:41.054Z,22.60
2022-11-18T02:12:43.308Z,15.10
2022-11-18T02:16:15.785Z,17.05
2022-11-18T02:19:18.148Z,13.88
2022-11-18T02:22:46.695Z,13.18
2022-11-18T02:26:10.497Z,12.05
2022-11-18T02:29:17.811Z,11.10
2022-11-18T02:32:33.802Z,12.23
2022-11-18T02:36:05.270Z,11.18
2022-11-18T02:45:22.578Z,12.13
2022-11-18T02:48:26.942Z,12.05
2022-11-18T02:51:30.924Z,17.58
2022-11-18T02:54:34.061Z,13.35
2022-11-18T02:57:37.560Z,10.30
2022-11-18T03:00:40.028Z,13.73
2022-11-18T03:03:42.245Z,15.43
2022-11-18T03:06:54.191Z,16.08
2022-11-18T03:09:57.611Z,11.02
2022-11-18T03:13:02.739Z,10.85
2022-11-18T03:16:10.579Z,13.00
2022-11-18T03:19:29.599Z,15.80
2022-11-18T03:22:34.750Z,10.63
2022-11-18T03:25:45.373Z,14.77
2022-11-18T03:28:58.972Z,12.70
2022-11-18T03:32:09.786Z,15.80
2022-11-18T03:35:16.464Z,13.15
2022-11-18T03:38:23.598Z,16.85
2022-11-18T03:41:26.712Z,12.93
2022-11-18T03:44:31.635Z,17.12
2022-11-18T03:47:36.779Z,22.42
2022-11-18T03:51:04.889Z,12.75
2022-11-18T03:54:11.838Z,20.88
2022-11-18T03:57:18.525Z,19.35
2022-11-18T04:00:20.898Z,12.73
2022-11-18T04:03:26.044Z,15.77
2022-11-18T04:06:38.812Z,12.23
2022-11-18T04:09:45.199Z,19.52
2022-11-18T04:12:58.591Z,15.52
2022-11-18T04:16:04.377Z,15.80
2022-11-18T04:19:06.703Z,9.23
2022-11-18T04:22:10.053Z,10.73
2022-11-18T04:25:12.302Z,11.55
2022-11-18T04:28:14.498Z,9.20
2022-11-18T04:31:16.710Z,18.67
2022-11-18T04:34:18.899Z,7.70
2022-11-18T04:37:21.422Z,8.20
2022-11-18T04:40:23.777Z,8.90
2022-11-18T04:43:25.954Z,7.68
2022-11-18T04:46:28.112Z,8.45
2022-11-18T04:49:30.583Z,12.70
2022-11-18T04:52:32.885Z,17.58
2022-11-18T04:55:37.839Z,10.40
2022-11-18T04:58:40.006Z,10.10
2022-11-18T05:01:42.526Z,12.75
2022-11-18T05:04:44.781Z,12.50
2022-11-18T05:07:47.148Z,11.38
2022-11-18T05:10:49.747Z,7.65
2022-11-18T05:13:52.342Z,10.60
2022-11-18T05:16:55.437Z,10.55
2022-11-18T05:19:57.581Z,8.88
2022-11-18T05:22:59.829Z,9.07
2022-11-18T05:26:05.982Z,11.45
2022-11-18T05:29:08.173Z,11.82
2022-11-18T05:32:10.479Z,9.73
2022-11-18T05:35:12.645Z,12.07
2022-11-18T05:38:14.895Z,9.07
2022-11-18T05:41:36.675Z,11.95
2022-11-18T05:44:39.050Z,9.82
2022-11-18T05:47:59.977Z,15.20
2022-11-18T05:51:02.230Z,12.45
2022-11-18T05:54:06.301Z,10.85
2022-11-18T05:57:08.703Z,12.52
2022-11-18T06:00:11.656Z,27.20
2022-11-18T06:03:27.511Z,13.93
2022-11-18T06:06:32.609Z,13.05
2022-11-18T06:09:37.077Z,20.08
2022-11-18T06:12:42.777Z,19.90
2022-11-18T06:15:45.545Z,17.85
2022-11-18T06:18:47.769Z,18.20
2022-11-18T06:21:50.527Z,16.62
2022-11-18T06:24:52.879Z,19.58
2022-11-18T06:27:57.535Z,14.68
2022-11-18T06:30:59.845Z,13.62
2022-11-18T06:34:02.069Z,13.48
2022-11-18T06:37:18.407Z,12.52
2022-11-18T06:40:20.731Z,12.77
2022-11-18T06:43:41.532Z,11.18
2022-11-18T06:46:55.452Z,6.83
2022-11-18T06:49:57.640Z,9.27
2022-11-18T06:53:01.176Z,6.55
2022-11-18T06:56:08.085Z,7.03
2022-11-18T06:59:10.353Z,7.37
2022-11-18T07:02:12.584Z,6.75
2022-11-18T07:05:14.782Z,7.45
2022-11-18T07:08:16.943Z,8.82
2022-11-18T07:11:24.581Z,8.70
2022-11-18T07:14:26.892Z,7.43
2022-11-18T07:17:30.692Z,7.37
2022-11-18T07:20:32.925Z,9.70
2022-11-18T07:23:35.674Z,9.40
2022-11-18T07:26:37.878Z,7.07
2022-11-18T07:29:40.034Z,8.55
2022-11-18T07:32:42.293Z,9.48
2022-11-18T07:35:44.479Z,11.75
2022-11-18T07:38:47.133Z,9.00
2022-11-18T07:41:49.305Z,10.45
2022-11-18T07:44:51.471Z,10.18
2022-11-18T07:47:53.720Z,8.73
2022-11-18T07:50:55.888Z,14.87
2022-11-18T07:53:58.207Z,9.43
2022-11-18T07:57:00.431Z,7.85
2022-11-18T08:00:04.422Z,11.18
2022-11-18T08:03:06.678Z,8.85
2022-11-18T08:06:10.156Z,7.50
2022-11-18T08:09:12.603Z,8.95
2022-11-18T08:12:14.888Z,7.32
2022-11-18T08:15:17.135Z,10.63
2022-11-18T08:18:19.415Z,10.32
2022-11-18T08:21:22.927Z,8.95
2022-11-18T08:24:25.175Z,12.23
2022-11-18T08:27:27.370Z,8.90
2022-11-18T08:30:29.575Z,11.12
2022-11-18T08:33:31.799Z,7.55
2022-11-18T08:36:36.361Z,7.30
2022-11-18T08:39:38.601Z,11.95
2022-11-18T08:42:40.838Z,11.43
2022-11-18T08:45:43.120Z,9.48
2022-11-18T08:48:45.330Z,7.57
2022-11-18T08:51:47.524Z,10.35
2022-11-18T08:54:49.724Z,8.50
2022-11-18T08:57:51.913Z,9.30
2022-11-18T09:00:54.395Z,9.48
2022-11-18T09:03:57.760Z,11.30
2022-11-18T09:06:59.964Z,8.45
2022-11-18T09:10:02.246Z,8.80
2022-11-18T09:13:25.217Z,10.82
2022-11-18T09:16:29.528Z,8.98
2022-11-18T09:19:46.780Z,11.23
2022-11-18T09:22:49.771Z,10.85
2022-11-18T09:26:02.486Z,7.78
2022-11-18T09:29:05.064Z,7.10
2022-11-18T09:32:07.279Z,9.20
2022-11-18T09:35:09.536Z,6.45
2022-11-18T09:38:11.808Z,10.57
2022-11-18T09:41:29.248Z,8.98
2022-11-18T09:44:43.216Z,8.73
2022-11-18T09:47:45.432Z,13.02
2022-11-18T09:50:50.300Z,9.60
2022-11-18T09:53:52.995Z,12.13
2022-11-18T09:56:55.857Z,12.32
2022-11-18T09:59:58.460Z,10.02
2022-11-18T10:03:01.714Z,11.48
2022-11-18T10:06:10.278Z,13.10
2022-11-18T10:09:38.270Z,6.37
2022-11-18T10:12:47.498Z,10.98
2022-11-18T10:16:04.202Z,6.95
2022-11-18T10:19:36.229Z,9.23
2022-11-18T10:22:48.892Z,11.23
2022-11-18T10:25:53.574Z,10.75
2022-11-18T10:28:55.793Z,9.85
2022-11-18T10:32:17.094Z,8.55
2022-11-18T10:35:36.675Z,6.85
2022-11-18T10:38:39.278Z,6.65
2022-11-18T10:41:50.345Z,5.15
2022-11-18T10:44:52.611Z,8.93
2022-11-18T10:48:18.290Z,5.15
2022-11-18T10:51:23.418Z,4.75
2022-11-18T10:54:25.780Z,3.37
2022-11-18T10:57:30.451Z,5.12
2022-11-18T11:00:52.836Z,4.75
2022-11-18T11:04:23.333Z,5.97
2022-11-18T11:07:28.674Z,5.87
2022-11-18T11:10:30.956Z,6.30
2022-11-18T11:13:36.024Z,6.95
2022-11-18T11:17:04.164Z,6.45
2022-11-18T11:20:23.925Z,7.87
2022-11-18T11:23:26.736Z,6.20
2022-11-18T11:30:11.915Z,6.05
2022-11-18T11:33:41.423Z,4.78
2022-11-18T11:37:03.806Z,8.30
2022-11-18T11:40:30.632Z,7.28
2022-11-18T11:43:43.640Z,7.90
2022-11-18T11:47:13.628Z,7.55
2022-11-18T11:50:18.725Z,2.78
2022-11-18T11:53:43.452Z,7.57
2022-11-18T11:56:55.734Z,3.83
2022-11-18T12:00:06.164Z,13.98
2022-11-18T12:03:20.590Z,7.68
2022-11-18T12:06:22.814Z,9.32
2022-11-18T12:09:39.367Z,8.43
2022-11-18T12:13:08.960Z,7.18
2022-11-18T12:16:19.876Z,4.37
2022-11-18T12:19:22.835Z,3.50
2022-11-18T12:23:03.339Z,8.82
2022-11-18T12:26:09.521Z,13.88
2022-11-18T12:29:20.801Z,12.65
2022-11-18T12:35:35.168Z,15.20
2022-11-18T12:38:37.420Z,1.77
2022-11-18T12:41:58.271Z,4.07
2022-11-18T12:45:38.763Z,2.40
2022-11-18T12:48:41.285Z,9.82
2022-11-18T12:51:44.361Z,11.63
2022-11-18T12:54:48.373Z,28.48
2022-11-18T12:57:50.620Z,24.02
2022-11-18T13:01:12.586Z,7.15
2022-11-18T13:04:20.099Z,5.43
2022-11-18T13:07:40.993Z,4.65
2022-11-18T13:10:55.904Z,4.65
2022-11-18T13:14:16.912Z,7.53
2022-11-18T13:17:52.272Z,6.97
2022-11-18T13:20:57.788Z,8.95
2022-11-18T13:24:01.118Z,4.10
2022-11-18T13:27:03.389Z,92.82
2022-11-18T13:30:15.255Z,18.48
2022-11-18T13:33:17.481Z,14.18
2022-11-18T13:36:24.448Z,20.17
2022-11-18T13:39:29.415Z,15.13
2022-11-18T13:42:32.093Z,9.40
2022-11-18T13:45:34.765Z,9.07
2022-11-18T13:48:40.971Z,9.20
2022-11-18T13:51:43.187Z,11.73
2022-11-18T13:54:46.189Z,9.63
2022-11-18T13:57:54.092Z,11.35
2022-11-18T14:00:58.417Z,23.15
2022-11-18T14:04:09.676Z,10.95
2022-11-18T14:07:34.987Z,8.93
2022-11-18T14:10:43.749Z,9.32
2022-11-18T14:13:52.186Z,11.38
2022-11-18T14:16:54.477Z,15.90
2022-11-18T14:19:58.264Z,17.85
2022-11-18T14:23:01.444Z,11.95
2022-11-18T14:26:05.357Z,8.10
2022-11-18T14:29:21.435Z,11.05
2022-11-18T14:32:23.961Z,21.20
2022-11-18T14:35:30.444Z,13.95
2022-11-18T14:41:58.625Z,75.68
2022-11-18T14:45:00.886Z,15.57
2022-11-18T14:48:03.196Z,10.60
2022-11-18T14:51:05.519Z,14.32
2022-11-18T14:54:11.399Z,14.07
2022-11-18T14:57:17.585Z,12.85
2022-11-18T15:00:20.208Z,11.75
2022-11-18T15:03:22.438Z,9.02
2022-11-18T15:06:24.821Z,12.18
2022-11-18T15:09:27.164Z,10.30
2022-11-18T15:12:29.330Z,12.00
2022-11-18T15:15:31.666Z,12.75
2022-11-18T15:18:33.863Z,22.70
2022-11-18T15:21:36.116Z,17.92
2022-11-18T15:24:38.541Z,16.52
2022-11-18T15:27:41.129Z,18.58
2022-11-18T15:30:43.294Z,16.50
2022-11-18T15:33:45.997Z,15.75
2022-11-18T15:36:48.539Z,10.68
2022-11-18T15:39:50.730Z,21.42
2022-11-18T15:42:52.912Z,16.83
2022-11-18T15:45:58.923Z,16.55
2022-11-18T15:49:01.529Z,20.52
2022-11-18T15:52:03.845Z,15.10
2022-11-18T15:55:08.201Z,16.42
2022-11-18T15:58:10.597Z,12.07
2022-11-18T16:01:12.799Z,10.85
2022-11-18T16:04:18.714Z,10.10
2022-11-18T16:07:21.326Z,10.10
2022-11-18T16:10:42.007Z,16.98
2022-11-18T16:13:44.456Z,17.65
2022-11-18T16:16:48.007Z,29.85
2022-11-18T16:19:50.444Z,34.00
2022-11-18T16:22:53.972Z,47.85
2022-11-18T16:25:56.159Z,30.15
2022-11-18T16:28:58.895Z,22.70
2022-11-18T16:32:01.021Z,24.00
2022-11-18T16:35:03.227Z,20.67
2022-11-18T16:38:08.149Z,21.23
2022-11-18T16:41:28.814Z,22.40
2022-11-18T16:44:31.129Z,41.57
2022-11-18T16:47:33.358Z,27.62
2022-11-18T16:50:35.555Z,33.22
2022-11-18T16:53:38.924Z,41.95
2022-11-18T16:56:41.275Z,41.30
2022-11-18T16:59:43.455Z,32.97
2022-11-18T17:02:45.811Z,46.47
2022-11-18T17:05:48.053Z,43.13
2022-11-18T17:08:50.299Z,39.22
2022-11-18T17:11:54.258Z,29.40
2022-11-18T17:14:56.496Z,34.60
2022-11-18T17:17:58.786Z,39.03
2022-11-18T17:21:12.421Z,40.00
2022-11-18T17:24:16.597Z,23.10
2022-11-18T17:27:18.967Z,24.20
2022-11-18T17:30:21.113Z,11.68
2022-11-18T17:33:23.478Z,11.48
2022-11-18T17:36:27.318Z,11.45
2022-11-18T17:39:29.553Z,17.77
2022-11-18T17:42:31.885Z,15.40
2022-11-18T17:45:34.296Z,16.85
2022-11-18T17:48:36.672Z,14.75
2022-11-18T17:51:39.315Z,17.27
2022-11-18T17:54:41.537Z,15.48
2022-11-18T17:57:43.734Z,19.40
2022-11-18T18:00:45.891Z,34.25
2022-11-18T18:03:49.025Z,26.80
2022-11-18T18:06:52.905Z,19.05
2022-11-18T18:09:55.228Z,26.05
2022-11-18T18:13:15.764Z,25.12
2022-11-18T18:16:18.662Z,22.17
2022-11-18T18:19:22.574Z,26.23
2022-11-18T18:22:25.178Z,25.60
2022-11-18T18:25:27.591Z,29.40
2022-11-18T18:28:30.095Z,30.92
2022-11-18T18:31:35.126Z,37.67
2022-11-18T18:34:37.334Z,28.98
2022-11-18T18:37:39.649Z,28.48
2022-11-18T18:40:41.847Z,30.80
2022-11-18T18:43:45.840Z,29.50
2022-11-18T18:46:48.185Z,21.27
2022-11-18T18:49:50.422Z,29.12
2022-11-18T18:52:53.108Z,32.35
2022-11-18T18:55:56.128Z,37.85
2022-11-18T18:58:58.985Z,35.95
2022-11-18T19:02:01.457Z,35.92
2022-11-18T19:05:04.250Z,28.95
2022-11-18T19:08:07.808Z,31.42
2022-11-18T19:11:30.226Z,34.05
2022-11-18T19:14:34.921Z,26.42
2022-11-18T19:17:37.616Z,22.58
2022-11-18T19:20:43.271Z,26.67
2022-11-18T19:23:46.418Z,23.42
2022-11-18T19:26:48.807Z,21.25
2022-11-18T19:29:51.437Z,35.10
2022-11-18T19:32:55.851Z,21.55
2022-11-18T19:36:02.183Z,18.90
2022-11-18T19:39:04.643Z,22.92
2022-11-18T19:42:07.694Z,21.67
2022-11-18T19:45:10.730Z,22.23
2022-11-18T19:48:13.200Z,27.95
2022-11-18T19:51:15.820Z,20.90
2022-11-18T19:54:18.232Z,16.50
2022-11-18T19:57:20.976Z,20.77
2022-11-18T20:00:23.420Z,25.83
2022-11-18T20:03:28.092Z,18.45
2022-11-18T20:06:30.390Z,22.17
2022-11-18T20:09:32.860Z,21.77
2022-11-18T20:12:36.220Z,23.08
2022-11-18T20:15:39.325Z,24.65
2022-11-18T20:18:42.896Z,32.42
2022-11-18T20:21:47.854Z,18.75
2022-11-18T20:24:50.403Z,19.90
2022-11-18T20:27:53.128Z,22.60
2022-11-18T20:30:56.228Z,19.45
2022-11-18T20:33:58.867Z,19.05
2022-11-18T20:37:01.398Z,22.08
2022-11-18T20:40:04.326Z,19.95
2022-11-18T20:43:12.193Z,19.30
2022-11-18T20:46:20.372Z,15.95
2022-11-18T20:49:23.534Z,13.55
2022-11-18T20:52:25.900Z,9.05
2022-11-18T20:55:28.385Z,10.75
2022-11-18T20:58:31.645Z,7.93
2022-11-18T21:01:34.063Z,8.85
2022-11-18T21:04:38.041Z,8.23
2022-11-18T21:07:40.221Z,8.88
2022-11-18T21:10:42.732Z,8.57
2022-11-18T21:14:03.491Z,9.13
2022-11-18T21:17:06.469Z,7.95
2022-11-18T21:20:29.084Z,8.93
2022-11-18T21:23:32.187Z,7.60
2022-11-18T21:26:35.668Z,9.90
2022-11-18T21:29:38.082Z,9.85
2022-11-18T21:32:40.272Z,6.15
2022-11-18T21:35:42.470Z,6.35
2022-11-18T21:38:44.889Z,9.57
2022-11-18T21:41:52.024Z,4.65
2022-11-18T21:44:57.368Z,7.45
2022-11-18T21:47:59.560Z,4.12
2022-11-18T21:51:03.121Z,5.45
2022-11-18T21:54:05.476Z,8.50
2022-11-18T21:57:07.657Z,6.80
2022-11-18T22:00:10.728Z,5.78
2022-11-18T22:03:12.881Z,5.45
2022-11-18T22:06:15.528Z,6.78
2022-11-18T22:09:18.089Z,4.62
2022-11-18T22:12:20.800Z,7.15
2022-11-18T22:15:23.035Z,7.78
2022-11-18T22:18:25.237Z,6.75
2022-11-18T22:21:27.467Z,5.95
2022-11-18T22:24:29.719Z,8.23
2022-11-18T22:27:31.880Z,5.97
2022-11-18T22:30:34.082Z,8.73
2022-11-18T22:33:36.731Z,5.97
2022-11-18T22:36:38.964Z,3.67
2022-11-18T22:39:41.168Z,4.43
2022-11-18T22:42:49.255Z,4.10
2022-11-18T22:46:06.559Z,6.40
2022-11-18T22:49:09.827Z,11.18
2022-11-18T22:52:11.999Z,7.18
2022-11-18T22:55:14.257Z,8.05
2022-11-18T22:58:16.484Z,6.68
2022-11-18T23:01:20.425Z,7.40
2022-11-18T23:04:22.604Z,7.93
2022-11-18T23:07:24.920Z,5.28
2022-11-18T23:10:27.152Z,5.53
2022-11-18T23:13:48.139Z,4.78
2022-11-18T23:16:50.357Z,5.93
2022-11-18T23:19:52.482Z,6.70
2022-11-18T23:22:54.672Z,5.68
2022-11-18T23:26:08.701Z,6.80
2022-11-18T23:29:12.000Z,5.95
2022-11-18T23:32:14.167Z,6.43
2022-11-18T23:35:16.362Z,4.45
2022-11-18T23:38:18.796Z,5.47
2022-11-18T23:41:21.427Z,5.47
2022-11-18T23:44:43.549Z,5.25
2022-11-18T23:47:45.740Z,8.10
2022-11-18T23:50:58.865Z,10.18
2022-11-18T23:54:01.029Z,7.70
2022-11-18T23:57:05.244Z,7.07
